To NAV CANADA Home Page Login to a new session Search on AWWS site Feedback and Comments Disclaimer Vers la page française équivalente Tips FAQ What's new on the site To the Forecasts and Observations / NOTAM section To "File a Flight Plan" website Publications and other links Update of the User's profile FIC Telephone Numbers My Weather Data Folder Route Weather Data Regional Weather Data Local Weather Data To the Forecasts and Observations / NOTAM section
Request Generated 04/02/2015 at 09:41:50 UTC . Weather information available at that time is displayed.

METAR/TAF

FREDERICTON/FREDERICTON INTL/NB    (show WxCam)

METAR CYFC 020900Z AUTO 21005KT 9SM CLR M10/M16 A3005 RMK SLP177=
METAR CYFC 020800Z AUTO 21005KT 9SM CLR M10/M15 A3003 RMK SLP170=
METAR CYFC 020700Z AUTO 20005KT 9SM CLR M09/M16 A3002 RMK SLP168=

TAF CYFC 020538Z 0206/0218 25006KT P6SM SKC
BECMG 0210/0212 24010G20KT
RMK FCST BASED ON AUTO OBS. NXT FCST BY 021200Z=
Your time UTC time
Weather data provided by Environment Canada and NAV CANADA